sensor_id;sensor_type;location;lat;lon;timestamp;temperature;humidity
28767;DHT22;15921;52.034;20.650;2023-12-04T00:00:35;-1.40;99.90
28767;DHT22;15921;52.034;20.650;2023-12-04T00:03:01;-1.40;99.90
28767;DHT22;15921;52.034;20.650;2023-12-04T00:05:26;-1.30;99.90
28767;DHT22;15921;52.034;20.650;2023-12-04T00:07:52;-1.30;99.90
28767;DHT22;15921;52.034;20.650;2023-12-04T00:10:18;-1.30;99.90
28767;DHT22;15921;52.034;20.650;2023-12-04T00:12:43;-1.30;99.90
28767;DHT22;15921;52.034;20.650;2023-12-04T00:15:10;-1.30;99.90
28767;DHT22;15921;52.034;20.650;2023-12-04T00:17:36;-1.30;99.90
28767;DHT22;15921;52.034;20.650;2023-12-04T00:20:06;-1.30;99.90
28767;DHT22;15921;52.034;20.650;2023-12-04T00:22:33;-1.30;99.90
28767;DHT22;15921;52.034;20.650;2023-12-04T00:24:59;-1.30;99.90
28767;DHT22;15921;52.034;20.650;2023-12-04T00:27:24;-1.30;99.90
28767;DHT22;15921;52.034;20.650;2023-12-04T00:29:53;-1.30;99.90
28767;DHT22;15921;52.034;20.650;2023-12-04T00:32:18;-1.30;99.90
28767;DHT22;15921;52.034;20.650;2023-12-04T00:34:44;-1.30;99.90
28767;DHT22;15921;52.034;20.650;2023-12-04T00:37:10;-1.30;99.90
28767;DHT22;15921;52.034;20.650;2023-12-04T00:39:35;-1.30;99.90
28767;DHT22;15921;52.034;20.650;2023-12-04T00:42:01;-1.30;99.90
28767;DHT22;15921;52.034;20.650;2023-12-04T00:44:27;-1.30;99.90
28767;DHT22;15921;52.034;20.650;2023-12-04T00:46:52;-1.30;99.90
28767;DHT22;15921;52.034;20.650;2023-12-04T00:49:18;-1.30;99.90
28767;DHT22;15921;52.034;20.650;2023-12-04T00:51:44;-1.20;99.90
28767;DHT22;15921;52.034;20.650;2023-12-04T00:54:11;-1.20;99.90
28767;DHT22;15921;52.034;20.650;2023-12-04T00:56:40;-1.20;99.90
28767;DHT22;15921;52.034;20.650;2023-12-04T00:59:10;-1.20;99.90
28767;DHT22;15921;52.034;20.650;2023-12-04T01:01:37;-1.20;99.90
28767;DHT22;15921;52.034;20.650;2023-12-04T01:04:03;-1.20;99.90
28767;DHT22;15921;52.034;20.650;2023-12-04T01:06:29;-1.20;99.90
28767;DHT22;15921;52.034;20.650;2023-12-04T01:08:55;-1.20;99.90
28767;DHT22;15921;52.034;20.650;2023-12-04T01:11:21;-1.20;99.90
28767;DHT22;15921;52.034;20.650;2023-12-04T01:13:47;-1.20;99.90
28767;DHT22;15921;52.034;20.650;2023-12-04T01:16:15;-1.20;99.90
28767;DHT22;15921;52.034;20.650;2023-12-04T01:18:42;-1.20;99.90
28767;DHT22;15921;52.034;20.650;2023-12-04T01:21:08;-1.20;99.90
28767;DHT22;15921;52.034;20.650;2023-12-04T01:23:35;-1.20;99.90
28767;DHT22;15921;52.034;20.650;2023-12-04T01:26:02;-1.20;99.90
28767;DHT22;15921;52.034;20.650;2023-12-04T01:28:28;-1.20;99.90
28767;DHT22;15921;52.034;20.650;2023-12-04T01:30:53;-1.20;99.90
28767;DHT22;15921;52.034;20.650;2023-12-04T01:33:19;-1.20;99.90
28767;DHT22;15921;52.034;20.650;2023-12-04T01:35:45;-1.20;99.90
28767;DHT22;15921;52.034;20.650;2023-12-04T01:38:10;-1.20;99.90
28767;DHT22;15921;52.034;20.650;2023-12-04T01:40:36;-1.30;99.90
28767;DHT22;15921;52.034;20.650;2023-12-04T01:43:02;-1.30;99.90
28767;DHT22;15921;52.034;20.650;2023-12-04T01:45:27;-1.30;99.90
28767;DHT22;15921;52.034;20.650;2023-12-04T01:47:53;-1.30;99.90
28767;DHT22;15921;52.034;20.650;2023-12-04T01:50:19;-1.30;99.90
28767;DHT22;15921;52.034;20.650;2023-12-04T01:52:46;-1.30;99.90
28767;DHT22;15921;52.034;20.650;2023-12-04T01:55:12;-1.30;99.90
28767;DHT22;15921;52.034;20.650;2023-12-04T01:57:38;-1.30;99.90
28767;DHT22;15921;52.034;20.650;2023-12-04T02:00:05;-1.30;99.90
28767;DHT22;15921;52.034;20.650;2023-12-04T02:02:40;-1.40;99.90
28767;DHT22;15921;52.034;20.650;2023-12-04T02:05:07;-1.40;99.90
28767;DHT22;15921;52.034;20.650;2023-12-04T02:07:34;-1.50;99.90
28767;DHT22;15921;52.034;20.650;2023-12-04T02:09:59;-1.50;99.90
28767;DHT22;15921;52.034;20.650;2023-12-04T02:12:25;-1.50;99.90
28767;DHT22;15921;52.034;20.650;2023-12-04T02:14:52;-1.50;99.90
28767;DHT22;15921;52.034;20.650;2023-12-04T02:17:18;-1.60;99.90
28767;DHT22;15921;52.034;20.650;2023-12-04T02:19:45;-1.60;99.90
28767;DHT22;15921;52.034;20.650;2023-12-04T02:22:10;-1.60;99.90
28767;DHT22;15921;52.034;20.650;2023-12-04T02:24:36;-1.60;99.90
28767;DHT22;15921;52.034;20.650;2023-12-04T02:27:12;-1.60;99.90
28767;DHT22;15921;52.034;20.650;2023-12-04T02:29:47;-1.60;99.90
28767;DHT22;15921;52.034;20.650;2023-12-04T02:32:19;-1.60;99.90
28767;DHT22;15921;52.034;20.650;2023-12-04T02:34:47;-1.70;99.90
28767;DHT22;15921;52.034;20.650;2023-12-04T02:37:15;-1.70;99.90
28767;DHT22;15921;52.034;20.650;2023-12-04T02:39:42;-1.70;99.90
28767;DHT22;15921;52.034;20.650;2023-12-04T02:42:08;-1.70;99.90
28767;DHT22;15921;52.034;20.650;2023-12-04T02:44:34;-1.60;99.90
28767;DHT22;15921;52.034;20.650;2023-12-04T02:47:00;-1.60;99.90
28767;DHT22;15921;52.034;20.650;2023-12-04T02:49:26;-1.60;99.90
28767;DHT22;15921;52.034;20.650;2023-12-04T02:51:51;-1.70;99.90
28767;DHT22;15921;52.034;20.650;2023-12-04T02:54:17;-1.70;99.90
28767;DHT22;15921;52.034;20.650;2023-12-04T02:56:43;-1.70;99.90
28767;DHT22;15921;52.034;20.650;2023-12-04T02:59:08;-1.70;99.90
28767;DHT22;15921;52.034;20.650;2023-12-04T03:01:34;-1.70;99.90
28767;DHT22;15921;52.034;20.650;2023-12-04T03:04:00;-1.70;99.90
28767;DHT22;15921;52.034;20.650;2023-12-04T03:06:25;-1.70;99.90
28767;DHT22;15921;52.034;20.650;2023-12-04T03:08:51;-1.70;99.90
28767;DHT22;15921;52.034;20.650;2023-12-04T03:11:17;-1.80;99.90
28767;DHT22;15921;52.034;20.650;2023-12-04T03:13:43;-1.80;99.90
28767;DHT22;15921;52.034;20.650;2023-12-04T03:16:18;-1.80;99.90
28767;DHT22;15921;52.034;20.650;2023-12-04T03:18:44;-1.80;99.90
28767;DHT22;15921;52.034;20.650;2023-12-04T03:21:10;-1.80;99.90
28767;DHT22;15921;52.034;20.650;2023-12-04T03:23:36;-1.80;99.90
28767;DHT22;15921;52.034;20.650;2023-12-04T03:26:02;-1.80;99.90
28767;DHT22;15921;52.034;20.650;2023-12-04T03:28:28;-1.80;99.90
28767;DHT22;15921;52.034;20.650;2023-12-04T03:30:54;-1.80;99.90
28767;DHT22;15921;52.034;20.650;2023-12-04T03:33:20;-1.90;99.90
28767;DHT22;15921;52.034;20.650;2023-12-04T03:35:45;-1.90;99.90
28767;DHT22;15921;52.034;20.650;2023-12-04T03:38:11;-1.90;99.90
28767;DHT22;15921;52.034;20.650;2023-12-04T03:40:37;-1.90;99.90
28767;DHT22;15921;52.034;20.650;2023-12-04T03:43:02;-1.90;99.90
28767;DHT22;15921;52.034;20.650;2023-12-04T03:45:28;-1.90;99.90
28767;DHT22;15921;52.034;20.650;2023-12-04T03:47:54;-1.90;99.90
28767;DHT22;15921;52.034;20.650;2023-12-04T03:50:19;-1.90;99.90
28767;DHT22;15921;52.034;20.650;2023-12-04T03:52:45;-1.90;99.90
28767;DHT22;15921;52.034;20.650;2023-12-04T03:55:11;-1.90;99.90
28767;DHT22;15921;52.034;20.650;2023-12-04T03:57:36;-1.90;99.90
28767;DHT22;15921;52.034;20.650;2023-12-04T04:00:03;-2.00;99.90
28767;DHT22;15921;52.034;20.650;2023-12-04T04:02:29;-2.00;99.90
28767;DHT22;15921;52.034;20.650;2023-12-04T04:04:54;-2.00;99.90
28767;DHT22;15921;52.034;20.650;2023-12-04T04:07:20;-1.90;99.90
28767;DHT22;15921;52.034;20.650;2023-12-04T04:09:46;-1.90;99.90
28767;DHT22;15921;52.034;20.650;2023-12-04T04:12:12;-1.90;99.90
28767;DHT22;15921;52.034;20.650;2023-12-04T04:14:37;-1.90;99.90
28767;DHT22;15921;52.034;20.650;2023-12-04T04:17:03;-1.90;99.90
28767;DHT22;15921;52.034;20.650;2023-12-04T04:19:29;-1.90;99.90
28767;DHT22;15921;52.034;20.650;2023-12-04T04:21:55;-2.00;99.90
28767;DHT22;15921;52.034;20.650;2023-12-04T04:24:21;-1.90;99.90
28767;DHT22;15921;52.034;20.650;2023-12-04T04:26:46;-1.90;99.90
28767;DHT22;15921;52.034;20.650;2023-12-04T04:29:12;-1.90;99.90
28767;DHT22;15921;52.034;20.650;2023-12-04T04:31:38;-1.90;99.90
28767;DHT22;15921;52.034;20.650;2023-12-04T04:34:04;-2.00;99.90
28767;DHT22;15921;52.034;20.650;2023-12-04T04:36:29;-2.00;99.90
28767;DHT22;15921;52.034;20.650;2023-12-04T04:38:55;-2.00;99.90
28767;DHT22;15921;52.034;20.650;2023-12-04T04:41:21;-2.00;99.90
28767;DHT22;15921;52.034;20.650;2023-12-04T04:43:46;-2.00;99.90
28767;DHT22;15921;52.034;20.650;2023-12-04T04:46:12;-2.00;99.90
28767;DHT22;15921;52.034;20.650;2023-12-04T04:48:38;-2.10;99.90
28767;DHT22;15921;52.034;20.650;2023-12-04T04:51:04;-2.00;99.90
28767;DHT22;15921;52.034;20.650;2023-12-04T04:53:30;-2.00;99.90
28767;DHT22;15921;52.034;20.650;2023-12-04T04:55:56;-2.00;99.90
28767;DHT22;15921;52.034;20.650;2023-12-04T04:58:21;-2.00;99.90
28767;DHT22;15921;52.034;20.650;2023-12-04T05:00:47;-2.10;99.90
28767;DHT22;15921;52.034;20.650;2023-12-04T05:03:13;-2.00;99.90
28767;DHT22;15921;52.034;20.650;2023-12-04T05:05:39;-2.00;99.90
28767;DHT22;15921;52.034;20.650;2023-12-04T05:08:04;-2.00;99.90
28767;DHT22;15921;52.034;20.650;2023-12-04T05:10:30;-2.00;99.90
28767;DHT22;15921;52.034;20.650;2023-12-04T05:12:56;-2.10;99.90
28767;DHT22;15921;52.034;20.650;2023-12-04T05:15:21;-2.00;99.90
28767;DHT22;15921;52.034;20.650;2023-12-04T05:17:47;-2.00;99.90
28767;DHT22;15921;52.034;20.650;2023-12-04T05:20:13;-2.00;99.90
28767;DHT22;15921;52.034;20.650;2023-12-04T05:22:39;-2.10;99.90
28767;DHT22;15921;52.034;20.650;2023-12-04T05:25:05;-2.10;99.90
28767;DHT22;15921;52.034;20.650;2023-12-04T05:27:31;-2.10;99.90
28767;DHT22;15921;52.034;20.650;2023-12-04T05:29:57;-2.10;99.90
28767;DHT22;15921;52.034;20.650;2023-12-04T05:32:23;-2.00;99.90
28767;DHT22;15921;52.034;20.650;2023-12-04T05:34:49;-2.00;99.90
28767;DHT22;15921;52.034;20.650;2023-12-04T05:37:14;-2.00;99.90
28767;DHT22;15921;52.034;20.650;2023-12-04T05:39:41;-2.00;99.90
28767;DHT22;15921;52.034;20.650;2023-12-04T05:42:07;-2.00;99.90
28767;DHT22;15921;52.034;20.650;2023-12-04T05:44:33;-2.00;99.90
28767;DHT22;15921;52.034;20.650;2023-12-04T05:47:00;-2.00;99.90
28767;DHT22;15921;52.034;20.650;2023-12-04T05:49:25;-2.10;99.90
28767;DHT22;15921;52.034;20.650;2023-12-04T05:51:51;-2.10;99.90
28767;DHT22;15921;52.034;20.650;2023-12-04T05:54:17;-2.00;99.90
28767;DHT22;15921;52.034;20.650;2023-12-04T05:56:42;-2.00;99.90
28767;DHT22;15921;52.034;20.650;2023-12-04T05:59:08;-2.00;99.90
28767;DHT22;15921;52.034;20.650;2023-12-04T06:01:34;-2.00;99.90
28767;DHT22;15921;52.034;20.650;2023-12-04T06:04:00;-2.00;99.90
28767;DHT22;15921;52.034;20.650;2023-12-04T06:06:25;-2.00;99.90
28767;DHT22;15921;52.034;20.650;2023-12-04T06:08:52;-2.00;99.90
28767;DHT22;15921;52.034;20.650;2023-12-04T06:11:18;-2.00;99.90
28767;DHT22;15921;52.034;20.650;2023-12-04T06:13:43;-2.00;99.90
28767;DHT22;15921;52.034;20.650;2023-12-04T06:16:10;-2.10;99.90
28767;DHT22;15921;52.034;20.650;2023-12-04T06:18:36;-2.10;99.90
28767;DHT22;15921;52.034;20.650;2023-12-04T06:21:02;-2.10;99.90
28767;DHT22;15921;52.034;20.650;2023-12-04T06:23:27;-2.10;99.90
28767;DHT22;15921;52.034;20.650;2023-12-04T06:25:53;-2.10;99.90
28767;DHT22;15921;52.034;20.650;2023-12-04T06:28:19;-2.10;99.90
28767;DHT22;15921;52.034;20.650;2023-12-04T06:30:45;-2.00;99.90
28767;DHT22;15921;52.034;20.650;2023-12-04T06:33:11;-2.00;99.90
28767;DHT22;15921;52.034;20.650;2023-12-04T06:35:38;-1.90;99.90
28767;DHT22;15921;52.034;20.650;2023-12-04T06:38:08;-1.90;99.90
28767;DHT22;15921;52.034;20.650;2023-12-04T06:40:34;-1.90;99.90
28767;DHT22;15921;52.034;20.650;2023-12-04T06:43:00;-1.90;99.90
28767;DHT22;15921;52.034;20.650;2023-12-04T06:45:26;-1.90;99.90
28767;DHT22;15921;52.034;20.650;2023-12-04T06:47:53;-1.90;99.90
28767;DHT22;15921;52.034;20.650;2023-12-04T06:50:19;-1.90;99.90
28767;DHT22;15921;52.034;20.650;2023-12-04T06:52:45;-1.90;99.90
28767;DHT22;15921;52.034;20.650;2023-12-04T06:55:12;-1.90;99.90
28767;DHT22;15921;52.034;20.650;2023-12-04T06:57:38;-1.90;99.90
28767;DHT22;15921;52.034;20.650;2023-12-04T07:00:04;-1.90;99.90
28767;DHT22;15921;52.034;20.650;2023-12-04T07:02:32;-1.90;99.90
28767;DHT22;15921;52.034;20.650;2023-12-04T07:04:57;-1.80;99.90
28767;DHT22;15921;52.034;20.650;2023-12-04T07:07:23;-1.80;99.90
28767;DHT22;15921;52.034;20.650;2023-12-04T07:09:49;-1.70;99.90
28767;DHT22;15921;52.034;20.650;2023-12-04T07:12:14;-1.70;99.90
28767;DHT22;15921;52.034;20.650;2023-12-04T07:14:40;-1.80;99.90
28767;DHT22;15921;52.034;20.650;2023-12-04T07:17:06;-1.70;99.90
28767;DHT22;15921;52.034;20.650;2023-12-04T07:19:31;-1.60;99.90
28767;DHT22;15921;52.034;20.650;2023-12-04T07:21:57;-1.70;99.90
28767;DHT22;15921;52.034;20.650;2023-12-04T07:24:23;-1.60;99.90
28767;DHT22;15921;52.034;20.650;2023-12-04T07:26:48;-1.60;99.90
28767;DHT22;15921;52.034;20.650;2023-12-04T07:29:14;-1.60;99.90
28767;DHT22;15921;52.034;20.650;2023-12-04T07:31:41;-1.50;99.90
28767;DHT22;15921;52.034;20.650;2023-12-04T07:34:07;-1.50;99.90
28767;DHT22;15921;52.034;20.650;2023-12-04T07:36:32;-1.50;99.90
28767;DHT22;15921;52.034;20.650;2023-12-04T07:38:58;-1.50;99.90
28767;DHT22;15921;52.034;20.650;2023-12-04T07:41:24;-1.40;99.90
28767;DHT22;15921;52.034;20.650;2023-12-04T07:43:49;-1.40;99.90
28767;DHT22;15921;52.034;20.650;2023-12-04T07:46:24;-1.40;99.90
28767;DHT22;15921;52.034;20.650;2023-12-04T07:48:51;-1.40;99.90
28767;DHT22;15921;52.034;20.650;2023-12-04T07:51:16;-1.30;99.90
28767;DHT22;15921;52.034;20.650;2023-12-04T07:53:42;-1.30;99.90
28767;DHT22;15921;52.034;20.650;2023-12-04T07:56:08;-1.20;99.90
28767;DHT22;15921;52.034;20.650;2023-12-04T07:58:34;-1.20;99.90
28767;DHT22;15921;52.034;20.650;2023-12-04T08:01:00;-1.10;99.90
28767;DHT22;15921;52.034;20.650;2023-12-04T08:03:25;-1.10;99.90
28767;DHT22;15921;52.034;20.650;2023-12-04T08:05:52;-1.00;99.90
28767;DHT22;15921;52.034;20.650;2023-12-04T08:08:17;-0.90;99.90
28767;DHT22;15921;52.034;20.650;2023-12-04T08:10:43;-0.90;99.90
28767;DHT22;15921;52.034;20.650;2023-12-04T08:13:09;-0.90;99.90
28767;DHT22;15921;52.034;20.650;2023-12-04T08:15:34;-0.80;99.90
28767;DHT22;15921;52.034;20.650;2023-12-04T08:18:00;-0.80;99.90
28767;DHT22;15921;52.034;20.650;2023-12-04T08:20:26;-0.80;99.90
28767;DHT22;15921;52.034;20.650;2023-12-04T08:22:52;-0.80;99.90
28767;DHT22;15921;52.034;20.650;2023-12-04T08:25:17;-0.70;99.90
28767;DHT22;15921;52.034;20.650;2023-12-04T08:27:43;-0.60;99.90
28767;DHT22;15921;52.034;20.650;2023-12-04T08:30:09;-0.60;99.90
28767;DHT22;15921;52.034;20.650;2023-12-04T08:32:35;-0.50;99.90
28767;DHT22;15921;52.034;20.650;2023-12-04T08:35:01;-0.40;99.90
28767;DHT22;15921;52.034;20.650;2023-12-04T08:37:26;-0.40;99.90
28767;DHT22;15921;52.034;20.650;2023-12-04T08:39:52;-0.40;99.90
28767;DHT22;15921;52.034;20.650;2023-12-04T08:42:18;-0.30;99.90
28767;DHT22;15921;52.034;20.650;2023-12-04T08:44:44;-0.30;99.90
28767;DHT22;15921;52.034;20.650;2023-12-04T08:47:13;-0.30;99.90
28767;DHT22;15921;52.034;20.650;2023-12-04T08:49:40;-0.30;99.90
28767;DHT22;15921;52.034;20.650;2023-12-04T08:52:07;-0.30;99.90
28767;DHT22;15921;52.034;20.650;2023-12-04T08:54:33;-0.30;99.90
28767;DHT22;15921;52.034;20.650;2023-12-04T08:56:59;-0.40;99.90
28767;DHT22;15921;52.034;20.650;2023-12-04T08:59:25;-0.40;99.90
28767;DHT22;15921;52.034;20.650;2023-12-04T09:01:51;-0.30;99.90
28767;DHT22;15921;52.034;20.650;2023-12-04T09:04:16;-0.20;99.90
28767;DHT22;15921;52.034;20.650;2023-12-04T09:06:42;-0.20;99.90
28767;DHT22;15921;52.034;20.650;2023-12-04T09:09:08;-0.20;99.90
28767;DHT22;15921;52.034;20.650;2023-12-04T09:11:34;-0.10;99.90
28767;DHT22;15921;52.034;20.650;2023-12-04T09:14:00;0.00;99.90
28767;DHT22;15921;52.034;20.650;2023-12-04T09:16:25;0.20;99.90
28767;DHT22;15921;52.034;20.650;2023-12-04T09:18:51;0.30;99.90
28767;DHT22;15921;52.034;20.650;2023-12-04T09:21:18;0.50;99.90
28767;DHT22;15921;52.034;20.650;2023-12-04T09:23:44;0.70;99.90
28767;DHT22;15921;52.034;20.650;2023-12-04T09:26:15;0.90;99.90
28767;DHT22;15921;52.034;20.650;2023-12-04T09:28:41;1.00;99.90
28767;DHT22;15921;52.034;20.650;2023-12-04T09:31:08;1.00;99.90
28767;DHT22;15921;52.034;20.650;2023-12-04T09:33:34;1.00;99.90
28767;DHT22;15921;52.034;20.650;2023-12-04T09:36:02;1.10;99.90
28767;DHT22;15921;52.034;20.650;2023-12-04T09:38:28;1.20;99.90
28767;DHT22;15921;52.034;20.650;2023-12-04T09:40:57;1.20;99.90
28767;DHT22;15921;52.034;20.650;2023-12-04T09:43:24;1.20;99.90
28767;DHT22;15921;52.034;20.650;2023-12-04T09:45:51;1.30;99.90
28767;DHT22;15921;52.034;20.650;2023-12-04T09:48:18;1.30;99.90
28767;DHT22;15921;52.034;20.650;2023-12-04T09:50:44;1.30;99.90
28767;DHT22;15921;52.034;20.650;2023-12-04T09:53:12;1.30;99.90
28767;DHT22;15921;52.034;20.650;2023-12-04T09:55:39;1.10;99.90
28767;DHT22;15921;52.034;20.650;2023-12-04T09:58:05;1.00;99.90
28767;DHT22;15921;52.034;20.650;2023-12-04T10:00:32;1.10;99.90
28767;DHT22;15921;52.034;20.650;2023-12-04T10:02:58;1.00;99.90
28767;DHT22;15921;52.034;20.650;2023-12-04T10:05:25;1.00;99.90
28767;DHT22;15921;52.034;20.650;2023-12-04T10:07:51;0.90;99.90
28767;DHT22;15921;52.034;20.650;2023-12-04T10:10:17;0.90;99.90
28767;DHT22;15921;52.034;20.650;2023-12-04T10:12:43;0.90;99.90
28767;DHT22;15921;52.034;20.650;2023-12-04T10:15:10;1.10;99.90
28767;DHT22;15921;52.034;20.650;2023-12-04T10:17:40;1.10;99.90
28767;DHT22;15921;52.034;20.650;2023-12-04T10:22:58;1.20;99.90
28767;DHT22;15921;52.034;20.650;2023-12-04T10:25:26;1.10;99.90
28767;DHT22;15921;52.034;20.650;2023-12-04T10:27:54;0.90;99.90
28767;DHT22;15921;52.034;20.650;2023-12-04T10:32:48;0.90;99.90
28767;DHT22;15921;52.034;20.650;2023-12-04T10:35:14;1.00;99.90
28767;DHT22;15921;52.034;20.650;2023-12-04T10:37:40;1.00;99.90
28767;DHT22;15921;52.034;20.650;2023-12-04T10:40:06;1.10;99.90
28767;DHT22;15921;52.034;20.650;2023-12-04T10:42:35;1.30;99.90
28767;DHT22;15921;52.034;20.650;2023-12-04T10:45:01;1.30;99.90
28767;DHT22;15921;52.034;20.650;2023-12-04T10:47:29;1.40;99.90
28767;DHT22;15921;52.034;20.650;2023-12-04T10:49:58;1.50;99.90
28767;DHT22;15921;52.034;20.650;2023-12-04T10:52:24;1.60;99.90
28767;DHT22;15921;52.034;20.650;2023-12-04T10:54:50;1.70;99.90
28767;DHT22;15921;52.034;20.650;2023-12-04T10:57:26;1.80;99.90
28767;DHT22;15921;52.034;20.650;2023-12-04T11:00:00;1.80;99.90
28767;DHT22;15921;52.034;20.650;2023-12-04T11:02:29;1.80;99.90
28767;DHT22;15921;52.034;20.650;2023-12-04T11:05:07;1.80;99.90
28767;DHT22;15921;52.034;20.650;2023-12-04T11:07:41;2.00;99.90
28767;DHT22;15921;52.034;20.650;2023-12-04T11:10:10;2.20;99.90
28767;DHT22;15921;52.034;20.650;2023-12-04T11:12:40;2.10;99.90
28767;DHT22;15921;52.034;20.650;2023-12-04T11:15:14;2.10;99.90
28767;DHT22;15921;52.034;20.650;2023-12-04T11:17:43;2.10;99.90
28767;DHT22;15921;52.034;20.650;2023-12-04T11:20:15;2.20;99.90
28767;DHT22;15921;52.034;20.650;2023-12-04T11:22:44;2.30;99.90
28767;DHT22;15921;52.034;20.650;2023-12-04T11:25:12;2.20;99.90
28767;DHT22;15921;52.034;20.650;2023-12-04T11:27:39;2.40;99.90
28767;DHT22;15921;52.034;20.650;2023-12-04T11:30:06;2.40;99.90
28767;DHT22;15921;52.034;20.650;2023-12-04T11:32:48;2.70;99.90
28767;DHT22;15921;52.034;20.650;2023-12-04T11:35:15;3.00;99.90
28767;DHT22;15921;52.034;20.650;2023-12-04T11:37:43;3.70;99.90
28767;DHT22;15921;52.034;20.650;2023-12-04T11:40:15;4.50;98.90
28767;DHT22;15921;52.034;20.650;2023-12-04T11:42:42;5.50;96.90
28767;DHT22;15921;52.034;20.650;2023-12-04T11:45:09;6.70;92.90
28767;DHT22;15921;52.034;20.650;2023-12-04T11:47:56;7.80;91.30
28767;DHT22;15921;52.034;20.650;2023-12-04T11:50:24;8.90;84.30
28767;DHT22;15921;52.034;20.650;2023-12-04T11:52:50;9.50;79.80
28767;DHT22;15921;52.034;20.650;2023-12-04T11:55:23;9.60;76.60
28767;DHT22;15921;52.034;20.650;2023-12-04T11:57:52;9.70;75.20
28767;DHT22;15921;52.034;20.650;2023-12-04T12:00:23;10.30;73.10
28767;DHT22;15921;52.034;20.650;2023-12-04T12:05:19;10.60;69.00
28767;DHT22;15921;52.034;20.650;2023-12-04T12:07:45;10.40;68.30
28767;DHT22;15921;52.034;20.650;2023-12-04T12:10:12;10.10;68.10
28767;DHT22;15921;52.034;20.650;2023-12-04T12:12:39;10.00;68.00
28767;DHT22;15921;52.034;20.650;2023-12-04T12:15:08;10.20;68.60
28767;DHT22;15921;52.034;20.650;2023-12-04T12:17:34;10.70;67.30
28767;DHT22;15921;52.034;20.650;2023-12-04T12:20:00;10.60;65.60
28767;DHT22;15921;52.034;20.650;2023-12-04T12:22:26;10.60;66.20
28767;DHT22;15921;52.034;20.650;2023-12-04T12:24:51;10.10;65.00
28767;DHT22;15921;52.034;20.650;2023-12-04T12:27:17;9.80;66.50
28767;DHT22;15921;52.034;20.650;2023-12-04T12:29:43;9.90;66.50
28767;DHT22;15921;52.034;20.650;2023-12-04T12:32:09;9.80;66.60
28767;DHT22;15921;52.034;20.650;2023-12-04T12:34:35;9.90;65.90
28767;DHT22;15921;52.034;20.650;2023-12-04T12:37:04;9.60;66.70
28767;DHT22;15921;52.034;20.650;2023-12-04T12:39:32;9.40;66.50
28767;DHT22;15921;52.034;20.650;2023-12-04T12:41:58;9.50;66.80
28767;DHT22;15921;52.034;20.650;2023-12-04T12:44:24;9.60;66.40
28767;DHT22;15921;52.034;20.650;2023-12-04T12:46:51;9.60;66.10
28767;DHT22;15921;52.034;20.650;2023-12-04T12:49:18;8.60;66.70
28767;DHT22;15921;52.034;20.650;2023-12-04T12:51:47;7.80;68.50
28767;DHT22;15921;52.034;20.650;2023-12-04T12:54:13;7.20;70.50
28767;DHT22;15921;52.034;20.650;2023-12-04T12:56:39;7.00;72.40
28767;DHT22;15921;52.034;20.650;2023-12-04T12:59:05;6.60;72.50
28767;DHT22;15921;52.034;20.650;2023-12-04T13:01:32;5.80;73.90
28767;DHT22;15921;52.034;20.650;2023-12-04T13:03:58;5.10;75.80
28767;DHT22;15921;52.034;20.650;2023-12-04T13:06:25;4.50;78.00
28767;DHT22;15921;52.034;20.650;2023-12-04T13:08:51;4.20;79.60
28767;DHT22;15921;52.034;20.650;2023-12-04T13:11:16;4.00;80.90
28767;DHT22;15921;52.034;20.650;2023-12-04T13:13:43;4.20;81.20
28767;DHT22;15921;52.034;20.650;2023-12-04T13:16:09;4.50;81.10
28767;DHT22;15921;52.034;20.650;2023-12-04T13:18:35;5.00;80.20
28767;DHT22;15921;52.034;20.650;2023-12-04T13:21:01;4.60;79.30
28767;DHT22;15921;52.034;20.650;2023-12-04T13:23:27;4.20;81.10
28767;DHT22;15921;52.034;20.650;2023-12-04T13:25:53;4.10;81.30
28767;DHT22;15921;52.034;20.650;2023-12-04T13:28:22;4.00;82.10
28767;DHT22;15921;52.034;20.650;2023-12-04T13:30:47;4.20;82.50
28767;DHT22;15921;52.034;20.650;2023-12-04T13:33:13;4.20;81.70
28767;DHT22;15921;52.034;20.650;2023-12-04T13:35:39;4.10;82.40
28767;DHT22;15921;52.034;20.650;2023-12-04T13:38:05;4.10;83.40
28767;DHT22;15921;52.034;20.650;2023-12-04T13:40:41;3.60;83.10
28767;DHT22;15921;52.034;20.650;2023-12-04T13:43:06;3.20;84.60
28767;DHT22;15921;52.034;20.650;2023-12-04T13:45:51;2.70;86.00
28767;DHT22;15921;52.034;20.650;2023-12-04T13:48:18;2.20;87.70
28767;DHT22;15921;52.034;20.650;2023-12-04T13:50:46;1.80;89.20
28767;DHT22;15921;52.034;20.650;2023-12-04T13:53:12;1.30;90.40
28767;DHT22;15921;52.034;20.650;2023-12-04T13:55:40;1.10;91.40
28767;DHT22;15921;52.034;20.650;2023-12-04T13:58:24;0.90;92.10
28767;DHT22;15921;52.034;20.650;2023-12-04T14:01:10;0.70;92.60
28767;DHT22;15921;52.034;20.650;2023-12-04T14:03:43;0.40;93.20
28767;DHT22;15921;52.034;20.650;2023-12-04T14:06:09;0.30;93.90
28767;DHT22;15921;52.034;20.650;2023-12-04T14:08:35;0.20;94.90
28767;DHT22;15921;52.034;20.650;2023-12-04T14:11:04;0.00;95.80
28767;DHT22;15921;52.034;20.650;2023-12-04T14:13:33;-0.20;97.20
28767;DHT22;15921;52.034;20.650;2023-12-04T14:15:59;-0.40;99.00
28767;DHT22;15921;52.034;20.650;2023-12-04T14:18:26;-0.50;99.90
28767;DHT22;15921;52.034;20.650;2023-12-04T14:20:52;-0.70;99.90
28767;DHT22;15921;52.034;20.650;2023-12-04T14:23:18;-0.80;99.90
28767;DHT22;15921;52.034;20.650;2023-12-04T14:25:45;-0.80;99.90
28767;DHT22;15921;52.034;20.650;2023-12-04T14:28:11;-0.90;99.90
28767;DHT22;15921;52.034;20.650;2023-12-04T14:30:37;-1.00;99.90
28767;DHT22;15921;52.034;20.650;2023-12-04T14:33:03;-1.00;99.90
28767;DHT22;15921;52.034;20.650;2023-12-04T14:35:28;-1.00;99.90
28767;DHT22;15921;52.034;20.650;2023-12-04T14:37:54;-1.10;99.90
28767;DHT22;15921;52.034;20.650;2023-12-04T14:40:20;-1.00;99.90
28767;DHT22;15921;52.034;20.650;2023-12-04T14:42:45;-1.00;99.90
28767;DHT22;15921;52.034;20.650;2023-12-04T14:45:12;-1.10;99.90
28767;DHT22;15921;52.034;20.650;2023-12-04T14:47:39;-1.10;99.90
28767;DHT22;15921;52.034;20.650;2023-12-04T14:50:05;-1.10;99.90
28767;DHT22;15921;52.034;20.650;2023-12-04T14:52:32;-1.10;99.90
28767;DHT22;15921;52.034;20.650;2023-12-04T14:54:59;-1.10;99.90
28767;DHT22;15921;52.034;20.650;2023-12-04T14:57:28;-1.10;99.90
28767;DHT22;15921;52.034;20.650;2023-12-04T14:59:54;-1.10;99.90
28767;DHT22;15921;52.034;20.650;2023-12-04T15:02:38;-1.10;99.90
28767;DHT22;15921;52.034;20.650;2023-12-04T15:05:22;-1.10;99.90
28767;DHT22;15921;52.034;20.650;2023-12-04T15:08:06;-1.10;99.90
28767;DHT22;15921;52.034;20.650;2023-12-04T15:10:34;-1.20;99.90
28767;DHT22;15921;52.034;20.650;2023-12-04T15:13:06;-1.20;99.90
28767;DHT22;15921;52.034;20.650;2023-12-04T15:15:50;-1.20;99.90
28767;DHT22;15921;52.034;20.650;2023-12-04T15:18:28;-1.20;99.90
28767;DHT22;15921;52.034;20.650;2023-12-04T15:20:59;-1.30;99.90
28767;DHT22;15921;52.034;20.650;2023-12-04T15:23:26;-1.30;99.90
28767;DHT22;15921;52.034;20.650;2023-12-04T15:25:52;-1.30;99.90